Time,TemperatureF,DewpointF,PressureIn,WindDirection,WindDirectionDegrees,WindSpeedMPH,WindSpeedGustMPH,Humidity,HourlyPrecipIn,Conditions,Clouds,dailyrainin,SoftwareType,DateUTC
2013-05-03 00:11:00,60.4,57.0,30.15,North,11,4.0,-999.0,89,-99.99,,,0.07,weatherlink.com 1.10,2013-05-03 04:11:00,
2013-05-03 00:26:00,60.4,57.0,30.14,NNE,16,4.0,-999.0,89,-99.99,,,0.07,weatherlink.com 1.10,2013-05-03 04:26:00,
2013-05-03 00:41:00,60.2,57.0,30.14,North,7,6.0,-999.0,89,-99.99,,,0.07,weatherlink.com 1.10,2013-05-03 04:41:00,
2013-05-03 00:56:00,60.2,57.0,30.14,NE,52,8.0,-999.0,90,-99.99,,,0.07,weatherlink.com 1.10,2013-05-03 04:56:00,
2013-05-03 01:11:00,60.4,58.0,30.13,NE,37,6.0,-999.0,90,-99.99,,,0.07,weatherlink.com 1.10,2013-05-03 05:11:00,
2013-05-03 01:26:00,60.4,58.0,30.12,NNE,16,0.0,-999.0,90,-99.99,,,0.07,weatherlink.com 1.10,2013-05-03 05:26:00,
2013-05-03 01:41:00,60.5,58.0,30.12,NNE,16,6.0,-999.0,90,-99.99,,,0.00,weatherlink.com 1.10,2013-05-03 05:41:00,
2013-05-03 01:56:00,60.4,58.0,30.11,NNE,27,9.0,-999.0,90,-99.99,,,0.00,weatherlink.com 1.10,2013-05-03 05:56:00,
2013-05-03 02:11:00,60.4,58.0,30.10,NNE,21,13.0,-999.0,90,-99.99,,,0.00,weatherlink.com 1.10,2013-05-03 06:11:00,
2013-05-03 02:26:00,60.2,57.0,30.09,NNE,28,7.0,-999.0,90,-99.99,,,0.00,weatherlink.com 1.10,2013-05-03 06:26:00,
2013-05-03 02:41:00,60.2,58.0,30.09,NNE,20,0.0,-999.0,91,-99.99,,,0.00,weatherlink.com 1.10,2013-05-03 06:41:00,
2013-05-03 02:56:00,60.2,58.0,30.09,NE,34,7.0,-999.0,91,-99.99,,,0.00,weatherlink.com 1.10,2013-05-03 06:56:00,
2013-05-03 03:11:00,60.1,58.0,30.09,NE,37,4.0,-999.0,91,-99.99,,,0.00,weatherlink.com 1.10,2013-05-03 07:11:00,
2013-05-03 03:26:00,60.2,58.0,30.09,NE,45,8.0,-999.0,91,-99.99,,,0.00,weatherlink.com 1.10,2013-05-03 07:26:00,
2013-05-03 03:41:00,60.4,58.0,30.09,NNE,27,0.0,-999.0,91,-99.99,,,0.00,weatherlink.com 1.10,2013-05-03 07:41:00,
2013-05-03 03:56:00,60.4,58.0,30.09,NE,35,0.0,-999.0,91,-99.99,,,0.00,weatherlink.com 1.10,2013-05-03 07:56:00,
2013-05-03 04:11:00,60.4,58.0,30.09,NNE,13,10.0,-999.0,91,-99.99,,,0.00,weatherlink.com 1.10,2013-05-03 08:11:00,
2013-05-03 04:26:00,60.4,58.0,30.08,NNE,25,7.0,-999.0,92,-99.99,,,0.00,weatherlink.com 1.10,2013-05-03 08:26:00,
2013-05-03 04:41:00,60.4,58.0,30.09,NNE,18,4.0,-999.0,92,-99.99,,,0.00,weatherlink.com 1.10,2013-05-03 08:41:00,
2013-05-03 04:56:00,60.4,58.0,30.09,NNE,25,6.0,-999.0,92,-99.99,,,0.00,weatherlink.com 1.10,2013-05-03 08:56:00,
2013-05-03 05:11:00,60.4,58.0,30.08,NE,44,6.0,-999.0,92,-99.99,,,0.00,weatherlink.com 1.10,2013-05-03 09:11:00,
2013-05-03 05:26:00,60.2,58.0,30.08,NE,49,8.0,-999.0,92,-99.99,,,0.00,weatherlink.com 1.10,2013-05-03 09:26:00,
2013-05-03 05:41:00,60.1,58.0,30.08,NE,44,6.0,-999.0,91,-99.99,,,0.00,weatherlink.com 1.10,2013-05-03 09:41:00,
2013-05-03 05:56:00,60.1,58.0,30.08,NNE,17,6.0,-999.0,91,-99.99,,,0.00,weatherlink.com 1.10,2013-05-03 09:56:00,
2013-05-03 06:11:00,59.8,57.0,30.08,NNE,18,8.0,-999.0,91,-99.99,,,0.00,weatherlink.com 1.10,2013-05-03 10:11:00,
2013-05-03 06:26:00,59.6,57.0,30.09,NNE,32,9.0,-999.0,91,-99.99,,,0.00,weatherlink.com 1.10,2013-05-03 10:26:00,
2013-05-03 06:41:00,59.6,57.0,30.09,North,0,1.0,-999.0,91,-99.99,,,0.00,weatherlink.com 1.10,2013-05-03 10:41:00,
2013-05-03 06:56:00,59.8,57.0,30.09,NNE,14,0.0,-999.0,91,-99.99,,,0.00,weatherlink.com 1.10,2013-05-03 10:56:00,
2013-05-03 07:11:00,60.1,58.0,30.10,NE,41,6.0,-999.0,91,-99.99,,,0.00,weatherlink.com 1.10,2013-05-03 11:11:00,
2013-05-03 07:26:00,60.4,58.0,30.10,NE,41,7.0,-999.0,90,-99.99,,,0.00,weatherlink.com 1.10,2013-05-03 11:26:00,
2013-05-03 07:41:00,60.7,58.0,30.11,NNE,28,13.0,-999.0,90,-99.99,,,0.00,weatherlink.com 1.10,2013-05-03 11:41:00,
2013-05-03 07:56:00,60.9,58.0,30.11,ENE,72,2.0,-999.0,90,-99.99,,,0.00,weatherlink.com 1.10,2013-05-03 11:56:00,
2013-05-03 08:11:00,61.3,58.0,30.11,NNE,18,0.0,-999.0,89,-99.99,,,0.00,weatherlink.com 1.10,2013-05-03 12:11:00,
2013-05-03 08:26:00,62.3,59.0,30.11,NNE,13,0.0,-999.0,88,-99.99,,,0.00,weatherlink.com 1.10,2013-05-03 12:26:00,
2013-05-03 08:41:00,63.1,-99.9,30.12,NE,34,0.0,-999.0,-999,-99.99,,,0.00,weatherlink.com 1.10,2013-05-03 12:41:00,
2013-05-03 08:56:00,63.9,58.0,30.11,NE,49,0.0,-999.0,82,-99.99,,,0.00,weatherlink.com 1.10,2013-05-03 12:56:00,
2013-05-03 09:11:00,64.3,58.0,30.12,ENE,73,2.0,-999.0,79,-99.99,,,0.00,weatherlink.com 1.10,2013-05-03 13:11:00,
2013-05-03 09:26:00,64.5,57.0,30.12,ENE,78,9.0,-999.0,76,-99.99,,,0.00,weatherlink.com 1.10,2013-05-03 13:26:00,
2013-05-03 09:41:00,65.3,56.0,30.12,NE,44,4.0,-999.0,72,-99.99,,,0.00,weatherlink.com 1.10,2013-05-03 13:41:00,
2013-05-03 09:56:00,65.6,56.0,30.12,NE,49,10.0,-999.0,71,-99.99,,,0.00,weatherlink.com 1.10,2013-05-03 13:56:00,
2013-05-03 10:11:00,66.1,55.0,30.13,ENE,68,2.0,-999.0,68,-99.99,,,0.00,weatherlink.com 1.10,2013-05-03 14:11:00,
2013-05-03 10:26:00,67.1,56.0,30.12,NNE,32,10.0,-999.0,67,-99.99,,,0.00,weatherlink.com 1.10,2013-05-03 14:26:00,
2013-05-03 10:41:00,66.8,55.0,30.12,NE,52,10.0,-999.0,65,-99.99,,,0.00,weatherlink.com 1.10,2013-05-03 14:41:00,
2013-05-03 10:56:00,67.1,56.0,30.13,NE,40,11.0,-999.0,67,-99.99,,,0.00,weatherlink.com 1.10,2013-05-03 14:56:00,
2013-05-03 11:11:00,68.1,56.0,30.13,NNE,32,11.0,-999.0,65,-99.99,,,0.00,weatherlink.com 1.10,2013-05-03 15:11:00,
2013-05-03 11:26:00,67.6,56.0,30.13,ENE,58,15.0,-999.0,67,-99.99,,,0.00,weatherlink.com 1.10,2013-05-03 15:26:00,
2013-05-03 11:41:00,67.6,56.0,30.13,ENE,71,8.0,-999.0,67,-99.99,,,0.00,weatherlink.com 1.10,2013-05-03 15:41:00,
2013-05-03 11:56:00,68.6,55.0,30.14,NE,52,14.0,-999.0,62,-99.99,,,0.00,weatherlink.com 1.10,2013-05-03 15:56:00,
2013-05-03 12:11:00,67.8,55.0,30.14,ENE,59,1.0,-999.0,63,-99.99,,,0.00,weatherlink.com 1.10,2013-05-03 16:11:00,
2013-05-03 12:41:00,67.4,54.0,30.14,ENE,58,16.0,-999.0,63,-99.99,,,0.00,weatherlink.com 1.10,2013-05-03 16:41:00,
2013-05-03 12:56:00,67.3,53.0,30.14,NE,35,17.0,-999.0,61,-99.99,,,0.00,weatherlink.com 1.10,2013-05-03 16:56:00,
2013-05-03 13:11:00,67.1,52.0,30.13,NNE,31,9.0,-999.0,59,-99.99,,,0.00,weatherlink.com 1.10,2013-05-03 17:11:00,
2013-05-03 13:26:00,67.9,53.0,30.13,ENE,68,0.0,-999.0,59,-99.99,,,0.00,weatherlink.com 1.10,2013-05-03 17:26:00,
2013-05-03 13:41:00,67.4,51.0,30.12,ENE,69,13.0,-999.0,55,-99.99,,,0.00,weatherlink.com 1.10,2013-05-03 17:41:00,
2013-05-03 13:56:00,67.8,52.0,30.12,NE,45,0.0,-999.0,57,-99.99,,,0.00,weatherlink.com 1.10,2013-05-03 17:56:00,
2013-05-03 14:11:00,66.3,52.0,30.11,ENE,73,13.0,-999.0,60,-99.99,,,0.00,weatherlink.com 1.10,2013-05-03 18:11:00,
2013-05-03 14:26:00,66.8,50.0,30.12,North,8,13.0,-999.0,55,-99.99,,,0.00,weatherlink.com 1.10,2013-05-03 18:26:00,
2013-05-03 14:56:00,64.8,50.0,30.11,NE,38,7.0,-999.0,59,-99.99,,,0.00,weatherlink.com 1.10,2013-05-03 18:56:00,
2013-05-03 15:11:00,64.2,50.0,30.11,NNE,27,2.0,-999.0,60,-99.99,,,0.00,weatherlink.com 1.10,2013-05-03 19:11:00,
2013-05-03 15:26:00,64.0,51.0,30.11,NE,49,8.0,-999.0,63,-99.99,,,0.00,weatherlink.com 1.10,2013-05-03 19:26:00,
2013-05-03 15:41:00,64.3,50.0,30.10,ENE,59,7.0,-999.0,60,-99.99,,,0.00,weatherlink.com 1.10,2013-05-03 19:41:00,
2013-05-03 15:56:00,63.4,50.0,30.11,ENE,64,14.0,-999.0,63,-99.99,,,0.00,weatherlink.com 1.10,2013-05-03 19:56:00,
2013-05-03 16:11:00,62.3,49.0,30.11,NNE,28,10.0,-999.0,62,-99.99,,,0.00,weatherlink.com 1.10,2013-05-03 20:11:00,
2013-05-03 16:26:00,62.0,48.0,30.10,NE,38,9.0,-999.0,61,-99.99,,,0.00,weatherlink.com 1.10,2013-05-03 20:26:00,
2013-05-03 16:41:00,61.5,47.0,30.10,NE,48,8.0,-999.0,60,-99.99,,,0.00,weatherlink.com 1.10,2013-05-03 20:41:00,
2013-05-03 16:56:00,61.2,47.0,30.11,NE,54,2.0,-999.0,61,-99.99,,,0.00,weatherlink.com 1.10,2013-05-03 20:56:00,
2013-05-03 17:11:00,60.7,48.0,30.11,NE,34,6.0,-999.0,63,-99.99,,,0.00,weatherlink.com 1.10,2013-05-03 21:11:00,
2013-05-03 17:26:00,60.5,48.0,30.10,NNE,17,8.0,-999.0,64,-99.99,,,0.00,weatherlink.com 1.10,2013-05-03 21:26:00,
2013-05-03 17:41:00,59.9,48.0,30.10,North,0,21.0,-999.0,64,-99.99,,,0.00,weatherlink.com 1.10,2013-05-03 21:41:00,
2013-05-03 17:56:00,59.8,48.0,30.10,East,82,16.0,-999.0,66,-99.99,,,0.00,weatherlink.com 1.10,2013-05-03 21:56:00,
2013-05-03 18:11:00,59.8,47.0,30.11,NE,34,6.0,-999.0,64,-99.99,,,0.00,weatherlink.com 1.10,2013-05-03 22:11:00,
2013-05-03 18:26:00,59.9,47.0,30.10,ENE,62,10.0,-999.0,63,-99.99,,,0.00,weatherlink.com 1.10,2013-05-03 22:26:00,
2013-05-03 18:41:00,59.6,48.0,30.10,NE,40,7.0,-999.0,65,-99.99,,,0.00,weatherlink.com 1.10,2013-05-03 22:41:00,
2013-05-03 18:56:00,59.3,49.0,30.10,NNE,17,9.0,-999.0,68,-99.99,,,0.00,weatherlink.com 1.10,2013-05-03 22:56:00,
2013-05-03 19:11:00,58.9,49.0,30.11,NE,38,10.0,-999.0,69,-99.99,,,0.00,weatherlink.com 1.10,2013-05-03 23:11:00,
2013-05-03 19:26:00,58.7,49.0,30.10,NE,44,11.0,-999.0,70,-99.99,,,0.00,weatherlink.com 1.10,2013-05-03 23:26:00,
2013-05-03 19:41:00,58.4,49.0,30.10,NE,47,8.0,-999.0,71,-99.99,,,0.00,weatherlink.com 1.10,2013-05-03 23:41:00,
2013-05-03 19:56:00,58.1,49.0,30.11,NE,44,10.0,-999.0,73,-99.99,,,0.00,weatherlink.com 1.10,2013-05-03 23:56:00,
2013-05-03 20:11:00,58.1,49.0,30.11,NNE,24,2.0,-999.0,73,-99.99,,,0.00,weatherlink.com 1.10,2013-05-04 00:11:00,
2013-05-03 20:26:00,58.1,49.0,30.11,NE,34,10.0,-999.0,73,-99.99,,,0.00,weatherlink.com 1.10,2013-05-04 00:26:00,
2013-05-03 20:41:00,58.3,49.0,30.11,North,11,8.0,-999.0,72,-99.99,,,0.00,weatherlink.com 1.10,2013-05-04 00:41:00,
2013-05-03 20:56:00,58.3,50.0,30.11,NNE,21,0.0,-999.0,73,-99.99,,,0.00,weatherlink.com 1.10,2013-05-04 00:56:00,
2013-05-03 21:11:00,58.3,50.0,30.10,ENE,65,10.0,-999.0,74,-99.99,,,0.00,weatherlink.com 1.10,2013-05-04 01:11:00,
2013-05-03 21:26:00,58.1,51.0,30.11,East,89,9.0,-999.0,76,-99.99,,,0.00,weatherlink.com 1.10,2013-05-04 01:26:00,
2013-05-03 21:41:00,58.0,50.0,30.11,NNE,28,8.0,-999.0,76,-99.99,,,0.00,weatherlink.com 1.10,2013-05-04 01:41:00,
2013-05-03 21:56:00,57.6,51.0,30.11,NNE,27,6.0,-999.0,78,-99.99,,,0.00,weatherlink.com 1.10,2013-05-04 01:56:00,
2013-05-03 22:11:00,57.3,51.0,30.11,NNE,32,10.0,-999.0,79,-99.99,,,0.00,weatherlink.com 1.10,2013-05-04 02:11:00,
2013-05-03 22:26:00,57.3,51.0,30.11,NE,54,4.0,-999.0,80,-99.99,,,0.00,weatherlink.com 1.10,2013-05-04 02:26:00,
2013-05-03 22:41:00,57.2,51.0,30.11,NE,40,8.0,-999.0,80,-99.99,,,0.00,weatherlink.com 1.10,2013-05-04 02:41:00,
2013-05-03 22:56:00,57.0,51.0,30.10,NE,38,7.0,-999.0,81,-99.99,,,0.00,weatherlink.com 1.10,2013-05-04 02:56:00,
2013-05-03 23:11:00,56.9,51.0,30.09,NNE,16,6.0,-999.0,81,-99.99,,,0.00,weatherlink.com 1.10,2013-05-04 03:11:00,
2013-05-03 23:26:00,56.7,51.0,30.09,NE,45,11.0,-999.0,82,-99.99,,,0.00,weatherlink.com 1.10,2013-05-04 03:26:00,
2013-05-03 23:41:00,56.7,51.0,30.09,NE,44,0.0,-999.0,82,-99.99,,,0.00,weatherlink.com 1.10,2013-05-04 03:41:00,
2013-05-03 23:56:00,56.6,51.0,30.09,NNE,13,6.0,-999.0,82,-99.99,,,0.00,weatherlink.com 1.10,2013-05-04 03:56:00,